sensor_id;sensor_type;location;lat;lon;timestamp;temperature;humidity
13052;DHT22;6592;47.484;9.726;2022-10-04T00:02:18;10.80;99.90
13052;DHT22;6592;47.484;9.726;2022-10-04T00:04:51;10.70;99.90
13052;DHT22;6592;47.484;9.726;2022-10-04T00:07:26;10.70;99.90
13052;DHT22;6592;47.484;9.726;2022-10-04T00:09:58;10.60;99.90
13052;DHT22;6592;47.484;9.726;2022-10-04T00:12:30;10.60;99.90
13052;DHT22;6592;47.484;9.726;2022-10-04T00:15:01;10.60;99.90
13052;DHT22;6592;47.484;9.726;2022-10-04T00:17:32;10.60;99.90
13052;DHT22;6592;47.484;9.726;2022-10-04T00:20:09;10.50;99.90
13052;DHT22;6592;47.484;9.726;2022-10-04T00:23:24;10.50;99.90
13052;DHT22;6592;47.484;9.726;2022-10-04T00:25:58;10.40;99.90
13052;DHT22;6592;47.484;9.726;2022-10-04T00:28:42;10.30;99.90
13052;DHT22;6592;47.484;9.726;2022-10-04T00:31:14;10.20;99.90
13052;DHT22;6592;47.484;9.726;2022-10-04T00:33:52;10.20;99.90
13052;DHT22;6592;47.484;9.726;2022-10-04T00:39:38;10.10;99.90
13052;DHT22;6592;47.484;9.726;2022-10-04T00:42:31;10.10;99.90
13052;DHT22;6592;47.484;9.726;2022-10-04T00:45:09;10.10;99.90
13052;DHT22;6592;47.484;9.726;2022-10-04T00:48:02;10.00;99.90
13052;DHT22;6592;47.484;9.726;2022-10-04T00:50:37;10.00;99.90
13052;DHT22;6592;47.484;9.726;2022-10-04T00:53:16;9.90;99.90
13052;DHT22;6592;47.484;9.726;2022-10-04T00:55:48;9.90;99.90
13052;DHT22;6592;47.484;9.726;2022-10-04T00:58:23;9.90;99.90
13052;DHT22;6592;47.484;9.726;2022-10-04T01:00:53;9.90;99.90
13052;DHT22;6592;47.484;9.726;2022-10-04T01:03:25;9.90;99.90
13052;DHT22;6592;47.484;9.726;2022-10-04T01:06:00;9.90;99.90
13052;DHT22;6592;47.484;9.726;2022-10-04T01:08:32;9.80;99.90
13052;DHT22;6592;47.484;9.726;2022-10-04T01:11:04;9.80;99.90
13052;DHT22;6592;47.484;9.726;2022-10-04T01:13:37;9.80;99.90
13052;DHT22;6592;47.484;9.726;2022-10-04T01:16:11;9.80;99.90
13052;DHT22;6592;47.484;9.726;2022-10-04T01:18:41;9.70;99.90
13052;DHT22;6592;47.484;9.726;2022-10-04T01:21:24;9.70;99.90
13052;DHT22;6592;47.484;9.726;2022-10-04T01:24:15;9.70;99.90
13052;DHT22;6592;47.484;9.726;2022-10-04T01:26:44;9.70;99.90
13052;DHT22;6592;47.484;9.726;2022-10-04T01:29:15;9.60;99.90
13052;DHT22;6592;47.484;9.726;2022-10-04T01:31:45;9.60;99.90
13052;DHT22;6592;47.484;9.726;2022-10-04T01:34:15;9.60;99.90
13052;DHT22;6592;47.484;9.726;2022-10-04T01:36:45;9.60;99.90
13052;DHT22;6592;47.484;9.726;2022-10-04T01:39:18;9.50;99.90
13052;DHT22;6592;47.484;9.726;2022-10-04T01:41:49;9.50;99.90
13052;DHT22;6592;47.484;9.726;2022-10-04T01:44:26;9.50;99.90
13052;DHT22;6592;47.484;9.726;2022-10-04T01:46:57;9.50;99.90
13052;DHT22;6592;47.484;9.726;2022-10-04T01:49:29;9.40;99.90
13052;DHT22;6592;47.484;9.726;2022-10-04T01:52:01;9.40;99.90
13052;DHT22;6592;47.484;9.726;2022-10-04T01:54:34;9.40;99.90
13052;DHT22;6592;47.484;9.726;2022-10-04T01:57:10;9.40;99.90
13052;DHT22;6592;47.484;9.726;2022-10-04T01:59:43;9.40;99.90
13052;DHT22;6592;47.484;9.726;2022-10-04T02:02:22;9.40;99.90
13052;DHT22;6592;47.484;9.726;2022-10-04T02:04:54;9.30;99.90
13052;DHT22;6592;47.484;9.726;2022-10-04T02:07:25;9.30;99.90
13052;DHT22;6592;47.484;9.726;2022-10-04T02:10:00;9.30;99.90
13052;DHT22;6592;47.484;9.726;2022-10-04T02:12:31;9.30;99.90
13052;DHT22;6592;47.484;9.726;2022-10-04T02:15:02;9.20;99.90
13052;DHT22;6592;47.484;9.726;2022-10-04T02:17:37;9.10;99.90
13052;DHT22;6592;47.484;9.726;2022-10-04T02:20:14;9.10;99.90
13052;DHT22;6592;47.484;9.726;2022-10-04T02:22:44;9.10;99.90
13052;DHT22;6592;47.484;9.726;2022-10-04T02:25:17;9.10;99.90
13052;DHT22;6592;47.484;9.726;2022-10-04T02:27:46;9.10;99.90
13052;DHT22;6592;47.484;9.726;2022-10-04T02:30:15;9.10;99.90
13052;DHT22;6592;47.484;9.726;2022-10-04T02:32:43;9.10;99.90
13052;DHT22;6592;47.484;9.726;2022-10-04T02:35:28;9.10;99.90
13052;DHT22;6592;47.484;9.726;2022-10-04T02:38:07;9.10;99.90
13052;DHT22;6592;47.484;9.726;2022-10-04T02:40:44;9.10;99.90
13052;DHT22;6592;47.484;9.726;2022-10-04T02:43:18;9.10;99.90
13052;DHT22;6592;47.484;9.726;2022-10-04T02:45:51;9.10;99.90
13052;DHT22;6592;47.484;9.726;2022-10-04T02:48:29;9.20;99.90
13052;DHT22;6592;47.484;9.726;2022-10-04T02:51:04;9.20;99.90
13052;DHT22;6592;47.484;9.726;2022-10-04T02:53:40;9.20;99.90
13052;DHT22;6592;47.484;9.726;2022-10-04T02:56:12;9.10;99.90
13052;DHT22;6592;47.484;9.726;2022-10-04T02:58:41;9.10;99.90
13052;DHT22;6592;47.484;9.726;2022-10-04T03:01:16;9.10;99.90
13052;DHT22;6592;47.484;9.726;2022-10-04T03:03:45;9.10;99.90
13052;DHT22;6592;47.484;9.726;2022-10-04T03:06:16;9.10;99.90
13052;DHT22;6592;47.484;9.726;2022-10-04T03:08:49;9.20;99.90
13052;DHT22;6592;47.484;9.726;2022-10-04T03:11:22;9.20;99.90
13052;DHT22;6592;47.484;9.726;2022-10-04T03:13:55;9.20;99.90
13052;DHT22;6592;47.484;9.726;2022-10-04T03:16:24;9.20;99.90
13052;DHT22;6592;47.484;9.726;2022-10-04T03:18:55;9.20;99.90
13052;DHT22;6592;47.484;9.726;2022-10-04T03:21:25;9.20;99.90
13052;DHT22;6592;47.484;9.726;2022-10-04T03:23:54;9.30;99.90
13052;DHT22;6592;47.484;9.726;2022-10-04T03:26:28;9.30;99.90
13052;DHT22;6592;47.484;9.726;2022-10-04T03:28:57;9.30;99.90
13052;DHT22;6592;47.484;9.726;2022-10-04T03:31:26;9.40;99.90
13052;DHT22;6592;47.484;9.726;2022-10-04T03:33:56;9.40;99.90
13052;DHT22;6592;47.484;9.726;2022-10-04T03:36:25;9.40;99.90
13052;DHT22;6592;47.484;9.726;2022-10-04T03:38:55;9.40;99.90
13052;DHT22;6592;47.484;9.726;2022-10-04T03:41:26;9.40;99.90
13052;DHT22;6592;47.484;9.726;2022-10-04T03:43:55;9.40;99.90
13052;DHT22;6592;47.484;9.726;2022-10-04T03:46:30;9.40;99.90
13052;DHT22;6592;47.484;9.726;2022-10-04T03:48:58;9.40;99.90
13052;DHT22;6592;47.484;9.726;2022-10-04T03:51:28;9.50;99.90
13052;DHT22;6592;47.484;9.726;2022-10-04T03:53:58;9.50;99.90
13052;DHT22;6592;47.484;9.726;2022-10-04T03:56:30;9.40;99.90
13052;DHT22;6592;47.484;9.726;2022-10-04T03:59:01;9.50;99.90
13052;DHT22;6592;47.484;9.726;2022-10-04T04:01:35;9.40;99.90
13052;DHT22;6592;47.484;9.726;2022-10-04T04:04:15;9.40;99.90
13052;DHT22;6592;47.484;9.726;2022-10-04T04:06:51;9.40;99.90
13052;DHT22;6592;47.484;9.726;2022-10-04T04:09:24;9.40;99.90
13052;DHT22;6592;47.484;9.726;2022-10-04T04:11:55;9.40;99.90
13052;DHT22;6592;47.484;9.726;2022-10-04T04:14:26;9.40;99.90
13052;DHT22;6592;47.484;9.726;2022-10-04T04:17:16;9.40;99.90
13052;DHT22;6592;47.484;9.726;2022-10-04T04:19:46;9.40;99.90
13052;DHT22;6592;47.484;9.726;2022-10-04T04:22:16;9.40;99.90
13052;DHT22;6592;47.484;9.726;2022-10-04T04:24:45;9.40;99.90
13052;DHT22;6592;47.484;9.726;2022-10-04T04:27:17;9.30;99.90
13052;DHT22;6592;47.484;9.726;2022-10-04T04:29:51;9.30;99.90
13052;DHT22;6592;47.484;9.726;2022-10-04T04:32:22;9.30;99.90
13052;DHT22;6592;47.484;9.726;2022-10-04T04:34:56;9.30;99.90
13052;DHT22;6592;47.484;9.726;2022-10-04T04:37:24;9.30;99.90
13052;DHT22;6592;47.484;9.726;2022-10-04T04:39:53;9.30;99.90
13052;DHT22;6592;47.484;9.726;2022-10-04T04:42:29;9.40;99.90
13052;DHT22;6592;47.484;9.726;2022-10-04T04:45:01;9.40;99.90
13052;DHT22;6592;47.484;9.726;2022-10-04T04:47:32;9.40;99.90
13052;DHT22;6592;47.484;9.726;2022-10-04T04:50:04;9.40;99.90
13052;DHT22;6592;47.484;9.726;2022-10-04T04:52:34;9.40;99.90
13052;DHT22;6592;47.484;9.726;2022-10-04T04:55:04;9.40;99.90
13052;DHT22;6592;47.484;9.726;2022-10-04T04:57:38;9.40;99.90
13052;DHT22;6592;47.484;9.726;2022-10-04T05:00:13;9.50;99.90
13052;DHT22;6592;47.484;9.726;2022-10-04T05:02:50;9.50;99.90
13052;DHT22;6592;47.484;9.726;2022-10-04T05:05:25;9.50;99.90
13052;DHT22;6592;47.484;9.726;2022-10-04T05:08:11;9.60;99.90
13052;DHT22;6592;47.484;9.726;2022-10-04T05:10:43;9.50;99.90
13052;DHT22;6592;47.484;9.726;2022-10-04T05:13:15;9.50;99.90
13052;DHT22;6592;47.484;9.726;2022-10-04T05:15:46;9.50;99.90
13052;DHT22;6592;47.484;9.726;2022-10-04T05:18:27;9.50;99.90
13052;DHT22;6592;47.484;9.726;2022-10-04T05:21:03;9.50;99.90
13052;DHT22;6592;47.484;9.726;2022-10-04T05:23:33;9.50;99.90
13052;DHT22;6592;47.484;9.726;2022-10-04T05:26:01;9.50;99.90
13052;DHT22;6592;47.484;9.726;2022-10-04T05:28:32;9.50;99.90
13052;DHT22;6592;47.484;9.726;2022-10-04T05:31:23;9.50;99.90
13052;DHT22;6592;47.484;9.726;2022-10-04T05:33:57;9.40;99.90
13052;DHT22;6592;47.484;9.726;2022-10-04T05:36:43;9.40;99.90
13052;DHT22;6592;47.484;9.726;2022-10-04T05:39:21;9.40;99.90
13052;DHT22;6592;47.484;9.726;2022-10-04T05:41:56;9.30;99.90
13052;DHT22;6592;47.484;9.726;2022-10-04T05:44:34;9.30;99.90
13052;DHT22;6592;47.484;9.726;2022-10-04T05:47:05;9.30;99.90
13052;DHT22;6592;47.484;9.726;2022-10-04T05:49:40;9.30;99.90
13052;DHT22;6592;47.484;9.726;2022-10-04T05:52:14;9.30;99.90
13052;DHT22;6592;47.484;9.726;2022-10-04T05:54:43;9.30;99.90
13052;DHT22;6592;47.484;9.726;2022-10-04T05:57:24;9.40;99.90
13052;DHT22;6592;47.484;9.726;2022-10-04T06:00:12;9.40;99.90
13052;DHT22;6592;47.484;9.726;2022-10-04T06:03:08;9.50;99.90
13052;DHT22;6592;47.484;9.726;2022-10-04T06:05:48;9.70;99.90
13052;DHT22;6592;47.484;9.726;2022-10-04T06:08:32;9.90;99.90
13052;DHT22;6592;47.484;9.726;2022-10-04T06:11:16;10.00;99.90
13052;DHT22;6592;47.484;9.726;2022-10-04T06:14:09;10.10;99.90
13052;DHT22;6592;47.484;9.726;2022-10-04T06:17:06;10.10;99.90
13052;DHT22;6592;47.484;9.726;2022-10-04T06:22:56;10.10;99.90
13052;DHT22;6592;47.484;9.726;2022-10-04T06:25:28;10.20;99.90
13052;DHT22;6592;47.484;9.726;2022-10-04T06:28:08;10.20;99.90
13052;DHT22;6592;47.484;9.726;2022-10-04T06:30:50;10.20;99.90
13052;DHT22;6592;47.484;9.726;2022-10-04T06:33:41;10.20;99.90
13052;DHT22;6592;47.484;9.726;2022-10-04T06:36:34;10.30;99.90
13052;DHT22;6592;47.484;9.726;2022-10-04T06:39:17;10.40;99.90
13052;DHT22;6592;47.484;9.726;2022-10-04T06:42:17;10.50;99.90
13052;DHT22;6592;47.484;9.726;2022-10-04T06:45:09;10.60;99.90
13052;DHT22;6592;47.484;9.726;2022-10-04T06:48:01;10.60;99.90
13052;DHT22;6592;47.484;9.726;2022-10-04T06:50:39;10.70;99.90
13052;DHT22;6592;47.484;9.726;2022-10-04T06:53:19;10.80;99.90
13052;DHT22;6592;47.484;9.726;2022-10-04T06:56:09;10.90;99.90
13052;DHT22;6592;47.484;9.726;2022-10-04T07:01:55;11.00;99.90
13052;DHT22;6592;47.484;9.726;2022-10-04T07:04:32;11.20;99.90
13052;DHT22;6592;47.484;9.726;2022-10-04T07:07:29;11.30;99.90
13052;DHT22;6592;47.484;9.726;2022-10-04T07:10:28;11.20;99.90
13052;DHT22;6592;47.484;9.726;2022-10-04T07:13:11;11.50;99.90
13052;DHT22;6592;47.484;9.726;2022-10-04T07:15:48;11.80;99.90
13052;DHT22;6592;47.484;9.726;2022-10-04T07:18:22;12.10;99.90
13052;DHT22;6592;47.484;9.726;2022-10-04T07:20:59;12.40;99.90
13052;DHT22;6592;47.484;9.726;2022-10-04T07:23:34;12.70;99.90
13052;DHT22;6592;47.484;9.726;2022-10-04T07:26:06;12.80;99.90
13052;DHT22;6592;47.484;9.726;2022-10-04T07:28:43;12.90;99.90
13052;DHT22;6592;47.484;9.726;2022-10-04T07:31:31;12.80;99.90
13052;DHT22;6592;47.484;9.726;2022-10-04T07:34:07;12.90;99.90
13052;DHT22;6592;47.484;9.726;2022-10-04T07:36:42;13.10;99.90
13052;DHT22;6592;47.484;9.726;2022-10-04T07:39:17;13.40;99.90
13052;DHT22;6592;47.484;9.726;2022-10-04T07:41:50;13.60;99.90
13052;DHT22;6592;47.484;9.726;2022-10-04T07:44:29;13.90;99.90
13052;DHT22;6592;47.484;9.726;2022-10-04T07:47:04;14.00;99.90
13052;DHT22;6592;47.484;9.726;2022-10-04T07:49:38;14.40;99.90
13052;DHT22;6592;47.484;9.726;2022-10-04T07:52:36;14.80;99.90
13052;DHT22;6592;47.484;9.726;2022-10-04T07:55:20;15.20;99.90
13052;DHT22;6592;47.484;9.726;2022-10-04T07:57:57;15.70;99.90
13052;DHT22;6592;47.484;9.726;2022-10-04T08:00:35;16.10;99.90
13052;DHT22;6592;47.484;9.726;2022-10-04T08:03:20;16.50;99.90
13052;DHT22;6592;47.484;9.726;2022-10-04T08:05:58;16.80;99.90
13052;DHT22;6592;47.484;9.726;2022-10-04T08:11:40;17.40;99.90
13052;DHT22;6592;47.484;9.726;2022-10-04T08:14:20;17.70;99.90
13052;DHT22;6592;47.484;9.726;2022-10-04T08:17:04;18.10;99.90
13052;DHT22;6592;47.484;9.726;2022-10-04T08:19:55;18.60;99.90
13052;DHT22;6592;47.484;9.726;2022-10-04T08:22:46;19.40;99.90
13052;DHT22;6592;47.484;9.726;2022-10-04T08:25:22;20.10;99.90
13052;DHT22;6592;47.484;9.726;2022-10-04T08:28:02;20.60;99.90
13052;DHT22;6592;47.484;9.726;2022-10-04T08:31:05;20.70;99.90
13052;DHT22;6592;47.484;9.726;2022-10-04T08:33:56;21.10;99.90
13052;DHT22;6592;47.484;9.726;2022-10-04T08:36:30;21.20;99.90
13052;DHT22;6592;47.484;9.726;2022-10-04T08:39:00;21.30;99.90
13052;DHT22;6592;47.484;9.726;2022-10-04T08:51:05;21.80;99.90
13052;DHT22;6592;47.484;9.726;2022-10-04T08:54:05;21.90;99.90
13052;DHT22;6592;47.484;9.726;2022-10-04T08:56:53;22.00;99.90
13052;DHT22;6592;47.484;9.726;2022-10-04T09:02:58;22.40;99.90
13052;DHT22;6592;47.484;9.726;2022-10-04T09:05:50;22.40;99.90
13052;DHT22;6592;47.484;9.726;2022-10-04T09:11:26;22.00;99.90
13052;DHT22;6592;47.484;9.726;2022-10-04T09:14:14;21.70;99.90
13052;DHT22;6592;47.484;9.726;2022-10-04T09:16:56;21.60;99.90
13052;DHT22;6592;47.484;9.726;2022-10-04T09:19:43;21.60;99.90
13052;DHT22;6592;47.484;9.726;2022-10-04T09:22:17;21.90;99.90
13052;DHT22;6592;47.484;9.726;2022-10-04T09:25:07;22.10;99.90
13052;DHT22;6592;47.484;9.726;2022-10-04T09:27:54;22.50;99.90
13052;DHT22;6592;47.484;9.726;2022-10-04T09:30:34;23.30;99.90
13052;DHT22;6592;47.484;9.726;2022-10-04T09:33:28;24.20;99.90
13052;DHT22;6592;47.484;9.726;2022-10-04T09:36:11;25.30;99.90
13052;DHT22;6592;47.484;9.726;2022-10-04T09:39:02;25.90;99.90
13052;DHT22;6592;47.484;9.726;2022-10-04T09:45:27;26.30;99.90
13052;DHT22;6592;47.484;9.726;2022-10-04T09:48:16;26.30;99.90
13052;DHT22;6592;47.484;9.726;2022-10-04T09:57:11;25.40;99.90
13052;DHT22;6592;47.484;9.726;2022-10-04T09:59:58;25.00;99.90
13052;DHT22;6592;47.484;9.726;2022-10-04T10:08:44;24.30;99.90
13052;DHT22;6592;47.484;9.726;2022-10-04T10:11:20;24.20;99.90
13052;DHT22;6592;47.484;9.726;2022-10-04T10:17:23;23.80;99.90
13052;DHT22;6592;47.484;9.726;2022-10-04T10:20:31;23.80;99.90
13052;DHT22;6592;47.484;9.726;2022-10-04T10:29:30;25.50;99.90
13052;DHT22;6592;47.484;9.726;2022-10-04T10:32:35;26.20;99.90
13052;DHT22;6592;47.484;9.726;2022-10-04T10:35:18;26.60;99.90
13052;DHT22;6592;47.484;9.726;2022-10-04T10:38:09;26.70;99.90
13052;DHT22;6592;47.484;9.726;2022-10-04T10:41:05;27.00;99.20
13052;DHT22;6592;47.484;9.726;2022-10-04T10:44:14;28.00;98.40
13052;DHT22;6592;47.484;9.726;2022-10-04T10:46:57;28.80;94.90
13052;DHT22;6592;47.484;9.726;2022-10-04T10:49:42;29.60;94.80
13052;DHT22;6592;47.484;9.726;2022-10-04T10:52:45;28.90;92.30
13052;DHT22;6592;47.484;9.726;2022-10-04T10:59:21;29.70;91.70
13052;DHT22;6592;47.484;9.726;2022-10-04T11:02:24;29.90;89.90
13052;DHT22;6592;47.484;9.726;2022-10-04T11:05:33;29.00;89.00
13052;DHT22;6592;47.484;9.726;2022-10-04T11:08:27;28.90;89.50
13052;DHT22;6592;47.484;9.726;2022-10-04T11:11:28;29.10;88.10
13052;DHT22;6592;47.484;9.726;2022-10-04T11:14:36;29.70;87.20
13052;DHT22;6592;47.484;9.726;2022-10-04T11:17:22;30.60;86.00
13052;DHT22;6592;47.484;9.726;2022-10-04T11:20:23;30.30;83.20
13052;DHT22;6592;47.484;9.726;2022-10-04T11:29:25;29.60;81.90
13052;DHT22;6592;47.484;9.726;2022-10-04T11:35:30;29.10;82.30
13052;DHT22;6592;47.484;9.726;2022-10-04T11:38:09;29.50;83.00
13052;DHT22;6592;47.484;9.726;2022-10-04T11:41:03;29.80;84.50
13052;DHT22;6592;47.484;9.726;2022-10-04T11:46:38;30.60;78.50
13052;DHT22;6592;47.484;9.726;2022-10-04T11:49:36;31.20;76.60
13052;DHT22;6592;47.484;9.726;2022-10-04T11:52:43;32.00;78.30
13052;DHT22;6592;47.484;9.726;2022-10-04T11:55:38;32.30;74.10
13052;DHT22;6592;47.484;9.726;2022-10-04T11:58:17;32.60;74.00
13052;DHT22;6592;47.484;9.726;2022-10-04T12:01:19;32.80;70.10
13052;DHT22;6592;47.484;9.726;2022-10-04T12:04:22;33.00;71.00
13052;DHT22;6592;47.484;9.726;2022-10-04T12:07:09;32.50;68.80
13052;DHT22;6592;47.484;9.726;2022-10-04T12:09:43;32.30;70.10
13052;DHT22;6592;47.484;9.726;2022-10-04T12:12:38;32.30;70.70
13052;DHT22;6592;47.484;9.726;2022-10-04T12:15:36;32.80;68.10
13052;DHT22;6592;47.484;9.726;2022-10-04T12:27:32;32.50;66.40
13052;DHT22;6592;47.484;9.726;2022-10-04T12:30:21;32.50;66.50
13052;DHT22;6592;47.484;9.726;2022-10-04T12:33:01;32.30;67.10
13052;DHT22;6592;47.484;9.726;2022-10-04T12:41:30;32.10;66.30
13052;DHT22;6592;47.484;9.726;2022-10-04T12:44:14;31.90;66.00
13052;DHT22;6592;47.484;9.726;2022-10-04T12:46:53;31.50;67.70
13052;DHT22;6592;47.484;9.726;2022-10-04T12:49:30;31.60;67.00
13052;DHT22;6592;47.484;9.726;2022-10-04T12:52:10;31.50;67.90
13052;DHT22;6592;47.484;9.726;2022-10-04T12:54:42;31.60;67.60
13052;DHT22;6592;47.484;9.726;2022-10-04T12:57:36;31.60;67.60
13052;DHT22;6592;47.484;9.726;2022-10-04T13:00:16;32.10;67.40
13052;DHT22;6592;47.484;9.726;2022-10-04T13:06:05;31.80;65.40
13052;DHT22;6592;47.484;9.726;2022-10-04T13:08:46;32.40;66.80
13052;DHT22;6592;47.484;9.726;2022-10-04T13:11:27;32.40;64.80
13052;DHT22;6592;47.484;9.726;2022-10-04T13:17:16;33.10;65.20
13052;DHT22;6592;47.484;9.726;2022-10-04T13:20:19;33.30;65.80
13052;DHT22;6592;47.484;9.726;2022-10-04T13:22:58;33.50;62.50
13052;DHT22;6592;47.484;9.726;2022-10-04T13:25:39;33.10;62.20
13052;DHT22;6592;47.484;9.726;2022-10-04T13:28:17;32.90;64.60
13052;DHT22;6592;47.484;9.726;2022-10-04T13:30:55;32.30;62.90
13052;DHT22;6592;47.484;9.726;2022-10-04T13:33:36;32.10;63.80
13052;DHT22;6592;47.484;9.726;2022-10-04T13:36:10;31.90;64.60
13052;DHT22;6592;47.484;9.726;2022-10-04T13:38:58;31.60;63.90
13052;DHT22;6592;47.484;9.726;2022-10-04T13:41:46;31.30;63.40
13052;DHT22;6592;47.484;9.726;2022-10-04T13:44:45;31.00;64.00
13052;DHT22;6592;47.484;9.726;2022-10-04T13:50:37;31.40;66.90
13052;DHT22;6592;47.484;9.726;2022-10-04T13:53:18;31.60;65.70
13052;DHT22;6592;47.484;9.726;2022-10-04T13:56:18;31.80;66.30
13052;DHT22;6592;47.484;9.726;2022-10-04T13:59:20;31.90;64.10
13052;DHT22;6592;47.484;9.726;2022-10-04T14:08:19;31.60;63.20
13052;DHT22;6592;47.484;9.726;2022-10-04T14:17:11;31.40;64.20
13052;DHT22;6592;47.484;9.726;2022-10-04T14:20:22;31.60;65.50
13052;DHT22;6592;47.484;9.726;2022-10-04T14:23:22;31.30;65.20
13052;DHT22;6592;47.484;9.726;2022-10-04T14:26:18;30.80;65.60
13052;DHT22;6592;47.484;9.726;2022-10-04T14:29:19;30.70;65.10
13052;DHT22;6592;47.484;9.726;2022-10-04T14:32:15;30.90;65.50
13052;DHT22;6592;47.484;9.726;2022-10-04T14:34:55;31.10;66.10
13052;DHT22;6592;47.484;9.726;2022-10-04T14:40:49;30.50;65.40
13052;DHT22;6592;47.484;9.726;2022-10-04T14:43:58;30.60;65.70
13052;DHT22;6592;47.484;9.726;2022-10-04T14:46:40;30.30;66.20
13052;DHT22;6592;47.484;9.726;2022-10-04T14:49:17;30.00;66.70
13052;DHT22;6592;47.484;9.726;2022-10-04T14:52:02;30.10;67.20
13052;DHT22;6592;47.484;9.726;2022-10-04T14:54:44;29.70;66.90
13052;DHT22;6592;47.484;9.726;2022-10-04T14:57:24;29.60;66.70
13052;DHT22;6592;47.484;9.726;2022-10-04T15:00:14;29.60;67.60
13052;DHT22;6592;47.484;9.726;2022-10-04T15:02:54;29.40;68.20
13052;DHT22;6592;47.484;9.726;2022-10-04T15:05:57;29.40;68.40
13052;DHT22;6592;47.484;9.726;2022-10-04T15:11:43;29.30;69.10
13052;DHT22;6592;47.484;9.726;2022-10-04T15:17:55;28.90;70.60
13052;DHT22;6592;47.484;9.726;2022-10-04T15:20:31;28.80;71.50
13052;DHT22;6592;47.484;9.726;2022-10-04T15:23:11;28.50;71.70
13052;DHT22;6592;47.484;9.726;2022-10-04T15:25:43;28.40;71.50
13052;DHT22;6592;47.484;9.726;2022-10-04T15:31:21;27.60;72.90
13052;DHT22;6592;47.484;9.726;2022-10-04T15:34:06;27.00;74.40
13052;DHT22;6592;47.484;9.726;2022-10-04T15:39:58;26.20;77.10
13052;DHT22;6592;47.484;9.726;2022-10-04T15:42:29;25.70;77.60
13052;DHT22;6592;47.484;9.726;2022-10-04T15:48:33;24.70;80.10
13052;DHT22;6592;47.484;9.726;2022-10-04T15:51:12;24.40;81.10
13052;DHT22;6592;47.484;9.726;2022-10-04T15:53:48;23.90;82.90
13052;DHT22;6592;47.484;9.726;2022-10-04T15:56:27;23.60;83.50
13052;DHT22;6592;47.484;9.726;2022-10-04T16:02:08;22.90;86.50
13052;DHT22;6592;47.484;9.726;2022-10-04T16:04:56;22.70;86.80
13052;DHT22;6592;47.484;9.726;2022-10-04T16:07:36;22.50;86.60
13052;DHT22;6592;47.484;9.726;2022-10-04T16:10:18;22.00;88.70
13052;DHT22;6592;47.484;9.726;2022-10-04T16:13:22;21.60;89.80
13052;DHT22;6592;47.484;9.726;2022-10-04T16:19:10;21.10;90.70
13052;DHT22;6592;47.484;9.726;2022-10-04T16:21:49;20.80;91.20
13052;DHT22;6592;47.484;9.726;2022-10-04T16:24:39;20.50;91.60
13052;DHT22;6592;47.484;9.726;2022-10-04T16:30:23;20.10;92.60
13052;DHT22;6592;47.484;9.726;2022-10-04T16:33:10;19.60;93.80
13052;DHT22;6592;47.484;9.726;2022-10-04T16:35:41;19.20;94.30
13052;DHT22;6592;47.484;9.726;2022-10-04T16:38:23;18.80;96.00
13052;DHT22;6592;47.484;9.726;2022-10-04T16:41:06;18.40;97.30
13052;DHT22;6592;47.484;9.726;2022-10-04T16:43:46;18.00;98.80
13052;DHT22;6592;47.484;9.726;2022-10-04T16:46:22;17.60;99.90
13052;DHT22;6592;47.484;9.726;2022-10-04T16:48:54;17.20;99.90
13052;DHT22;6592;47.484;9.726;2022-10-04T16:51:51;17.00;99.90
13052;DHT22;6592;47.484;9.726;2022-10-04T16:54:55;16.70;99.90
13052;DHT22;6592;47.484;9.726;2022-10-04T16:57:27;16.50;99.90
13052;DHT22;6592;47.484;9.726;2022-10-04T16:59:57;16.30;99.90
13052;DHT22;6592;47.484;9.726;2022-10-04T17:02:51;16.00;99.90
13052;DHT22;6592;47.484;9.726;2022-10-04T17:05:44;15.70;99.90
13052;DHT22;6592;47.484;9.726;2022-10-04T17:08:24;15.50;99.90
13052;DHT22;6592;47.484;9.726;2022-10-04T17:11:26;15.40;99.90
13052;DHT22;6592;47.484;9.726;2022-10-04T17:13:58;15.20;99.90
13052;DHT22;6592;47.484;9.726;2022-10-04T17:16:35;15.10;99.90
13052;DHT22;6592;47.484;9.726;2022-10-04T17:19:27;14.90;99.90
13052;DHT22;6592;47.484;9.726;2022-10-04T17:22:04;14.80;99.90
13052;DHT22;6592;47.484;9.726;2022-10-04T17:24:47;14.60;99.90
13052;DHT22;6592;47.484;9.726;2022-10-04T17:27:43;14.50;99.90
13052;DHT22;6592;47.484;9.726;2022-10-04T17:30:15;14.30;99.90
13052;DHT22;6592;47.484;9.726;2022-10-04T17:32:57;14.10;99.90
13052;DHT22;6592;47.484;9.726;2022-10-04T17:35:52;13.90;99.90
13052;DHT22;6592;47.484;9.726;2022-10-04T17:38:29;13.80;99.90
13052;DHT22;6592;47.484;9.726;2022-10-04T17:41:11;13.70;99.90
13052;DHT22;6592;47.484;9.726;2022-10-04T17:44:05;13.70;99.90
13052;DHT22;6592;47.484;9.726;2022-10-04T17:46:42;13.60;99.90
13052;DHT22;6592;47.484;9.726;2022-10-04T17:49:21;13.50;99.90
13052;DHT22;6592;47.484;9.726;2022-10-04T17:52:14;13.50;99.90
13052;DHT22;6592;47.484;9.726;2022-10-04T17:55:11;13.40;99.90
13052;DHT22;6592;47.484;9.726;2022-10-04T17:57:50;13.30;99.90
13052;DHT22;6592;47.484;9.726;2022-10-04T18:00:23;13.20;99.90
13052;DHT22;6592;47.484;9.726;2022-10-04T18:03:09;13.10;99.90
13052;DHT22;6592;47.484;9.726;2022-10-04T18:05:46;13.00;99.90
13052;DHT22;6592;47.484;9.726;2022-10-04T18:08:23;13.00;99.90
13052;DHT22;6592;47.484;9.726;2022-10-04T18:10:56;12.90;99.90
13052;DHT22;6592;47.484;9.726;2022-10-04T18:13:30;12.90;99.90
13052;DHT22;6592;47.484;9.726;2022-10-04T18:16:08;12.90;99.90
13052;DHT22;6592;47.484;9.726;2022-10-04T18:18:39;12.80;99.90
13052;DHT22;6592;47.484;9.726;2022-10-04T18:21:20;12.80;99.90
13052;DHT22;6592;47.484;9.726;2022-10-04T18:23:55;12.70;99.90
13052;DHT22;6592;47.484;9.726;2022-10-04T18:26:27;12.70;99.90
13052;DHT22;6592;47.484;9.726;2022-10-04T18:28:57;12.70;99.90
13052;DHT22;6592;47.484;9.726;2022-10-04T18:31:31;12.60;99.90
13052;DHT22;6592;47.484;9.726;2022-10-04T18:34:16;12.70;99.90
13052;DHT22;6592;47.484;9.726;2022-10-04T18:36:56;12.70;99.90
13052;DHT22;6592;47.484;9.726;2022-10-04T18:39:24;12.70;99.90
13052;DHT22;6592;47.484;9.726;2022-10-04T18:41:57;12.70;99.90
13052;DHT22;6592;47.484;9.726;2022-10-04T18:44:28;12.70;99.90
13052;DHT22;6592;47.484;9.726;2022-10-04T18:46:59;12.70;99.90
13052;DHT22;6592;47.484;9.726;2022-10-04T18:49:30;12.70;99.90
13052;DHT22;6592;47.484;9.726;2022-10-04T18:52:22;12.70;99.90
13052;DHT22;6592;47.484;9.726;2022-10-04T18:55:03;12.70;99.90
13052;DHT22;6592;47.484;9.726;2022-10-04T18:57:35;12.70;99.90
13052;DHT22;6592;47.484;9.726;2022-10-04T19:00:25;12.70;99.90
13052;DHT22;6592;47.484;9.726;2022-10-04T19:03:21;12.70;99.90
13052;DHT22;6592;47.484;9.726;2022-10-04T19:05:59;12.70;99.90
13052;DHT22;6592;47.484;9.726;2022-10-04T19:08:37;12.70;99.90
13052;DHT22;6592;47.484;9.726;2022-10-04T19:11:11;12.70;99.90
13052;DHT22;6592;47.484;9.726;2022-10-04T19:13:44;12.60;99.90
13052;DHT22;6592;47.484;9.726;2022-10-04T19:16:26;12.60;99.90
13052;DHT22;6592;47.484;9.726;2022-10-04T19:19:14;12.60;99.90
13052;DHT22;6592;47.484;9.726;2022-10-04T19:21:54;12.50;99.90
13052;DHT22;6592;47.484;9.726;2022-10-04T19:24:38;12.50;99.90
13052;DHT22;6592;47.484;9.726;2022-10-04T19:27:15;12.40;99.90
13052;DHT22;6592;47.484;9.726;2022-10-04T19:30:00;12.30;99.90
13052;DHT22;6592;47.484;9.726;2022-10-04T19:32:38;12.30;99.90